Time;durP1;ratioP1;P1;durP2;ratioP2;P2;SDS_P1;SDS_P2;PMS_P1;PMS_P2;Temp;Humidity;BMP_temperature;BMP_pressure;BME280_temperature;BME280_humidity;BME280_pressure;Samples;Min_cycle;Max_cycle;Signal;HPM_P1;HPM_P2
2021/10/11 00:02:03;;;;;;;7.33;2.40;;;12.90;70.90;;;;;;5012364;28;20203;-71
2021/10/11 00:04:30;;;;;;;1.80;1.70;;;12.80;71.50;;;;;;5012982;28;20216;-71
2021/10/11 00:06:57;;;;;;;0.83;0.83;;;12.80;70.90;;;;;;5013241;28;20219;-71
2021/10/11 00:09:25;;;;;;;0.13;0.13;;;12.80;70.80;;;;;;5013051;28;20215;-71
2021/10/11 00:11:52;;;;;;;0.70;0.70;;;12.80;70.80;;;;;;5015650;28;20216;-71
2021/10/11 00:14:19;;;;;;;0.70;0.70;;;12.80;70.70;;;;;;5013023;28;20309;-71
2021/10/11 00:16:46;;;;;;;6.63;1.07;;;12.80;70.80;;;;;;5010079;28;20611;-71
2021/10/11 00:19:14;;;;;;;0.20;0.20;;;12.80;71.00;;;;;;5012504;28;20208;-71
2021/10/11 00:21:41;;;;;;;0.70;0.70;;;12.80;71.20;;;;;;5011038;28;20265;-71
2021/10/11 00:24:08;;;;;;;5.77;1.53;;;12.80;71.20;;;;;;5011551;28;20204;-71
2021/10/11 00:26:36;;;;;;;0.60;0.60;;;12.80;71.20;;;;;;5011804;28;20734;-71
2021/10/11 00:29:04;;;;;;;0.67;0.67;;;12.80;71.10;;;;;;5012307;28;20215;-71
2021/10/11 00:31:31;;;;;;;0.60;0.60;;;12.80;71.10;;;;;;5011922;28;20670;-71
2021/10/11 00:33:58;;;;;;;0.63;0.63;;;12.80;71.20;;;;;;5012143;28;20231;-71
2021/10/11 00:36:25;;;;;;;0.53;0.53;;;12.80;71.30;;;;;;5011328;28;20212;-71
2021/10/11 00:38:52;;;;;;;2.43;1.57;;;12.80;71.20;;;;;;5011551;28;20208;-71
2021/10/11 00:41:19;;;;;;;0.47;0.43;;;12.70;71.30;;;;;;5011626;28;20644;-71
2021/10/11 00:43:47;;;;;;;3.30;0.73;;;12.80;71.50;;;;;;5012481;28;20220;-71
2021/10/11 00:46:14;;;;;;;0.30;0.30;;;12.80;71.50;;;;;;5012320;28;20211;-71
2021/10/11 00:48:41;;;;;;;0.50;0.50;;;12.80;71.50;;;;;;5012504;28;20212;-71
2021/10/11 00:51:08;;;;;;;1.33;0.97;;;12.80;71.50;;;;;;5013284;28;20214;-71
2021/10/11 00:53:35;;;;;;;0.40;0.40;;;12.80;71.60;;;;;;5016443;28;20239;-71
2021/10/11 00:56:02;;;;;;;1.57;1.40;;;12.80;71.60;;;;;;5015644;28;20208;-71
2021/10/11 00:58:29;;;;;;;3.27;2.07;;;12.80;71.70;;;;;;5015062;28;20346;-71
2021/10/11 01:00:56;;;;;;;0.50;0.50;;;12.80;71.80;;;;;;5015287;28;20211;-71
2021/10/11 01:03:24;;;;;;;0.50;0.50;;;12.80;71.90;;;;;;5015683;28;20211;-71
2021/10/11 01:06:10;;;;;;;1.80;1.43;;;12.80;71.80;;;;;;5015615;28;20215;-71
2021/10/11 01:08:38;;;;;;;0.47;0.47;;;12.80;71.60;;;;;;5014567;28;20346;-71
2021/10/11 01:11:05;;;;;;;2.33;1.47;;;12.80;71.60;;;;;;5015418;28;20215;-71
2021/10/11 01:13:33;;;;;;;2.47;0.57;;;12.80;71.70;;;;;;5015247;28;20239;-71
2021/10/11 01:16:00;;;;;;;1.20;1.20;;;12.80;71.70;;;;;;5015318;28;20640;-71
2021/10/11 01:18:27;;;;;;;0.60;0.60;;;12.70;71.70;;;;;;5015475;28;20220;-71
2021/10/11 01:20:55;;;;;;;1.50;1.47;;;12.70;71.70;;;;;;5014959;28;20216;-71
2021/10/11 01:23:25;;;;;;;1.47;1.37;;;12.80;71.80;;;;;;5015141;28;20643;-71
2021/10/11 01:25:53;;;;;;;0.77;0.77;;;12.70;71.80;;;;;;5014734;28;20323;-71
2021/10/11 01:28:21;;;;;;;1.27;1.17;;;12.70;71.70;;;;;;5015106;28;20215;-71
2021/10/11 01:30:48;;;;;;;0.77;0.77;;;12.70;71.60;;;;;;5014951;28;20289;-71
2021/10/11 01:33:15;;;;;;;2.67;2.37;;;12.70;71.70;;;;;;5014951;28;20322;-71
2021/10/11 01:35:42;;;;;;;1.30;1.20;;;12.70;71.80;;;;;;5014914;28;20222;-71
2021/10/11 01:38:11;;;;;;;1.70;1.23;;;12.70;71.90;;;;;;5015037;28;20295;-71
2021/10/11 01:40:40;;;;;;;1.90;1.80;;;12.70;72.00;;;;;;5014761;28;20660;-71
2021/10/11 01:43:08;;;;;;;1.53;1.43;;;12.70;72.10;;;;;;5014776;28;20255;-71
2021/10/11 01:45:36;;;;;;;3.80;1.33;;;12.70;72.10;;;;;;5015946;28;20211;-71
2021/10/11 01:48:04;;;;;;;1.63;1.53;;;12.70;72.10;;;;;;5014867;28;20220;-71
2021/10/11 01:50:33;;;;;;;6.43;1.07;;;12.70;72.30;;;;;;5013603;28;20254;-71
2021/10/11 01:53:02;;;;;;;2.13;2.03;;;12.60;72.20;;;;;;5014853;28;20232;-71
2021/10/11 01:55:29;;;;;;;2.17;1.37;;;12.60;72.10;;;;;;5014165;28;20285;-71
2021/10/11 01:57:56;;;;;;;1.03;1.03;;;12.60;72.20;;;;;;5014433;28;20261;-71
2021/10/11 02:00:23;;;;;;;2.50;1.13;;;12.60;72.40;;;;;;5014438;28;20265;-71
2021/10/11 02:02:50;;;;;;;0.97;0.90;;;12.60;72.40;;;;;;5013410;28;20211;-71
2021/10/11 02:05:17;;;;;;;1.33;1.30;;;12.50;72.40;;;;;;5013242;28;20512;-71
2021/10/11 02:07:44;;;;;;;1.60;1.33;;;12.50;72.60;;;;;;5014721;28;20227;-71
2021/10/11 02:10:11;;;;;;;4.90;1.33;;;12.50;72.60;;;;;;5014370;28;20219;-71
2021/10/11 02:12:38;;;;;;;1.53;1.43;;;12.50;72.60;;;;;;5013918;28;20216;-71
2021/10/11 02:15:06;;;;;;;1.87;1.40;;;12.40;72.60;;;;;;5013526;28;20211;-71
2021/10/11 02:17:33;;;;;;;21.23;2.70;;;12.40;72.40;;;;;;5014027;28;20215;-71
2021/10/11 02:20:00;;;;;;;0.77;0.77;;;12.40;72.50;;;;;;5014403;28;20219;-71
2021/10/11 02:22:27;;;;;;;6.03;3.87;;;12.40;72.50;;;;;;5013580;28;20250;-71
2021/10/11 02:24:55;;;;;;;1.43;1.43;;;12.40;72.50;;;;;;5013899;28;20243;-71
2021/10/11 02:27:22;;;;;;;1.53;1.43;;;12.40;72.60;;;;;;5013691;28;20633;-71
2021/10/11 02:29:48;;;;;;;1.23;1.13;;;12.40;72.80;;;;;;5014093;28;20672;-71
2021/10/11 02:32:16;;;;;;;3.30;1.57;;;12.30;72.90;;;;;;5013497;28;20600;-71
2021/10/11 02:34:42;;;;;;;1.30;1.03;;;12.30;72.90;;;;;;5011923;28;20742;-71
2021/10/11 02:37:10;;;;;;;2.53;1.57;;;12.40;73.10;;;;;;5013607;28;20553;-71
2021/10/11 02:39:37;;;;;;;2.40;2.23;;;12.30;73.10;;;;;;5013811;28;20214;-71
2021/10/11 02:42:04;;;;;;;1.90;1.80;;;12.30;73.30;;;;;;5013399;28;20212;-71
2021/10/11 02:44:31;;;;;;;1.17;1.07;;;12.30;73.40;;;;;;5012754;28;20208;-70
2021/10/11 02:46:58;;;;;;;2.97;1.70;;;12.30;73.50;;;;;;5013463;28;20273;-70
2021/10/11 02:49:25;;;;;;;1.43;0.90;;;12.30;73.40;;;;;;5013183;28;20298;-70
2021/10/11 02:51:52;;;;;;;1.77;1.70;;;12.30;73.50;;;;;;5012434;28;20208;-70
2021/10/11 02:54:19;;;;;;;3.13;1.43;;;12.30;73.50;;;;;;5013488;28;20634;-70
2021/10/11 02:56:46;;;;;;;1.67;1.57;;;12.30;73.60;;;;;;5013513;28;20218;-70
2021/10/11 02:59:13;;;;;;;0.97;0.73;;;12.30;73.70;;;;;;5013788;28;20211;-70
2021/10/11 03:01:40;;;;;;;9.07;2.70;;;12.30;73.80;;;;;;5012534;28;20574;-70
2021/10/11 03:04:08;;;;;;;0.80;0.80;;;12.30;74.00;;;;;;5012856;28;20215;-70
2021/10/11 03:06:35;;;;;;;0.67;0.67;;;12.40;74.10;;;;;;5013715;28;20215;-70
2021/10/11 03:09:02;;;;;;;12.43;1.93;;;12.30;74.20;;;;;;5014397;28;20211;-71
2021/10/11 03:11:29;;;;;;;1.30;1.20;;;12.30;74.20;;;;;;5015338;28;20220;-71
2021/10/11 03:13:57;;;;;;;0.90;0.90;;;12.30;74.20;;;;;;5017827;28;20282;-71
2021/10/11 03:16:24;;;;;;;0.70;0.70;;;12.30;74.20;;;;;;5018846;28;20215;-71
2021/10/11 03:18:52;;;;;;;1.33;1.23;;;12.30;74.20;;;;;;5018315;28;20294;-71
2021/10/11 03:21:21;;;;;;;0.60;0.60;;;12.30;74.10;;;;;;5017718;28;20211;-71
2021/10/11 03:23:49;;;;;;;1.37;1.27;;;12.40;74.20;;;;;;5018349;28;20292;-71
2021/10/11 03:26:18;;;;;;;6.23;1.37;;;12.40;74.10;;;;;;5017722;28;20247;-71
2021/10/11 03:28:46;;;;;;;1.60;1.50;;;12.40;74.10;;;;;;5018277;28;20218;-71
2021/10/11 03:31:13;;;;;;;0.40;0.40;;;12.30;74.20;;;;;;5018575;28;20211;-71
2021/10/11 03:33:41;;;;;;;1.23;1.13;;;12.40;74.30;;;;;;5017981;28;20230;-71
2021/10/11 03:36:08;;;;;;;3.20;1.90;;;12.40;74.30;;;;;;5017466;28;20270;-71
2021/10/11 03:38:36;;;;;;;0.77;0.77;;;12.40;74.30;;;;;;5019199;28;20218;-71
2021/10/11 03:41:03;;;;;;;2.33;1.23;;;12.40;74.20;;;;;;5018662;28;20211;-71
2021/10/11 03:43:30;;;;;;;1.10;0.97;;;12.40;74.20;;;;;;5013590;28;20211;-71
2021/10/11 03:45:58;;;;;;;1.70;1.60;;;12.30;74.10;;;;;;5012518;28;20596;-71
2021/10/11 03:48:25;;;;;;;4.90;1.23;;;12.30;74.10;;;;;;5013056;28;20691;-71
2021/10/11 03:50:52;;;;;;;8.73;2.37;;;12.30;74.10;;;;;;5012359;28;20241;-71
2021/10/11 03:53:20;;;;;;;0.90;0.90;;;12.30;74.00;;;;;;5012711;28;20227;-71
2021/10/11 03:55:47;;;;;;;1.40;1.37;;;12.30;74.10;;;;;;5012576;28;20212;-71
2021/10/11 03:58:15;;;;;;;3.80;2.53;;;12.30;74.20;;;;;;5012774;28;20703;-71
2021/10/11 04:00:42;;;;;;;0.70;0.70;;;12.40;74.30;;;;;;5011677;28;20643;-71
2021/10/11 04:03:09;;;;;;;0.47;0.47;;;12.40;74.40;;;;;;5011897;28;20203;-71
2021/10/11 04:05:37;;;;;;;2.23;1.40;;;12.40;74.50;;;;;;5011460;28;20219;-71
2021/10/11 04:08:19;;;;;;;1.90;1.80;;;12.40;74.50;;;;;;5012888;28;20216;-71
2021/10/11 04:10:59;;;;;;;0.37;0.37;;;12.40;74.50;;;;;;5013008;28;20342;-71
2021/10/11 04:13:26;;;;;;;0.50;0.50;;;12.40;74.60;;;;;;5013045;28;20238;-71
2021/10/11 04:15:54;;;;;;;1.33;1.33;;;12.40;74.70;;;;;;5012129;28;20656;-71
2021/10/11 04:18:21;;;;;;;3.07;1.33;;;12.40;74.70;;;;;;5012648;28;20224;-71
2021/10/11 04:20:48;;;;;;;0.10;0.10;;;12.40;74.60;;;;;;5011792;28;20234;-71
2021/10/11 04:23:15;;;;;;;2.43;1.30;;;12.30;74.70;;;;;;5012440;28;20354;-71
2021/10/11 04:25:43;;;;;;;1.03;1.03;;;12.30;74.70;;;;;;5013694;28;20297;-71
2021/10/11 04:28:11;;;;;;;3.13;2.63;;;12.30;74.70;;;;;;5016257;28;20226;-71
2021/10/11 04:30:38;;;;;;;1.33;1.33;;;12.30;74.80;;;;;;5016437;28;20687;-71
2021/10/11 04:33:05;;;;;;;2.13;1.67;;;12.30;74.60;;;;;;5016126;28;20208;-71
2021/10/11 04:35:32;;;;;;;1.93;1.47;;;12.30;74.70;;;;;;5016137;28;20524;-71
2021/10/11 04:38:00;;;;;;;2.00;1.83;;;12.30;74.70;;;;;;5015219;28;20610;-71
2021/10/11 04:40:27;;;;;;;1.53;1.43;;;12.20;74.80;;;;;;5015325;28;20306;-71
2021/10/11 04:42:54;;;;;;;1.20;0.97;;;12.20;74.90;;;;;;5018184;28;20601;-71
2021/10/11 04:45:28;;;;;;;1.37;1.30;;;12.20;75.10;;;;;;5014891;28;20211;-71
2021/10/11 04:47:56;;;;;;;4.00;3.70;;;12.10;75.70;;;;;;5016201;28;20274;-71
2021/10/11 04:50:23;;;;;;;0.93;0.93;;;12.00;75.30;;;;;;5015956;28;20553;-71
2021/10/11 04:52:50;;;;;;;2.03;1.23;;;12.00;75.50;;;;;;5015894;28;20251;-71
2021/10/11 04:55:17;;;;;;;1.60;1.50;;;11.90;75.60;;;;;;5015440;28;20232;-71
2021/10/11 04:57:44;;;;;;;1.53;1.23;;;11.90;75.70;;;;;;5015929;28;20270;-71
2021/10/11 05:00:12;;;;;;;1.37;1.37;;;11.80;75.70;;;;;;5015003;28;20208;-71
2021/10/11 05:02:40;;;;;;;1.33;1.33;;;11.80;75.70;;;;;;5015688;28;20215;-71
2021/10/11 05:05:08;;;;;;;4.30;1.47;;;11.80;75.70;;;;;;5016058;28;20226;-71
2021/10/11 05:07:35;;;;;;;0.60;0.60;;;11.70;75.90;;;;;;5014696;28;20639;-71
2021/10/11 05:10:04;;;;;;;1.20;1.13;;;11.70;75.90;;;;;;5015994;28;20207;-71
2021/10/11 05:12:31;;;;;;;1.83;1.67;;;11.70;76.00;;;;;;5018245;28;20658;-71
2021/10/11 05:14:58;;;;;;;0.33;0.33;;;11.70;75.90;;;;;;5015688;28;20228;-71
2021/10/11 05:17:25;;;;;;;3.50;1.20;;;11.70;76.00;;;;;;5015923;28;20220;-71
2021/10/11 05:19:53;;;;;;;3.60;1.83;;;11.70;76.80;;;;;;5015820;28;20235;-71
2021/10/11 05:22:20;;;;;;;3.27;1.60;;;11.70;76.10;;;;;;5014948;28;20216;-71
2021/10/11 05:24:47;;;;;;;0.87;0.53;;;11.70;76.30;;;;;;5014621;28;20212;-71
2021/10/11 05:27:15;;;;;;;1.40;1.40;;;11.70;76.20;;;;;;5015157;28;20211;-71
2021/10/11 05:29:42;;;;;;;1.27;1.00;;;11.70;76.20;;;;;;5014946;28;20275;-71
2021/10/11 05:32:09;;;;;;;3.53;1.07;;;11.70;76.30;;;;;;5015554;28;20294;-71
2021/10/11 05:34:36;;;;;;;1.77;1.07;;;11.70;76.30;;;;;;5016166;28;20376;-71
2021/10/11 05:37:04;;;;;;;3.83;2.43;;;11.70;76.30;;;;;;5014719;28;20212;-71
2021/10/11 05:39:32;;;;;;;2.10;1.33;;;11.70;76.30;;;;;;5015579;28;20668;-71
2021/10/11 05:41:59;;;;;;;0.40;0.40;;;11.80;76.30;;;;;;5015170;28;20298;-71
2021/10/11 05:44:26;;;;;;;9.63;1.93;;;11.80;76.20;;;;;;5014465;28;20614;-71
2021/10/11 05:46:53;;;;;;;3.07;2.30;;;11.80;76.20;;;;;;5014389;28;20247;-71
2021/10/11 05:49:22;;;;;;;3.17;1.77;;;11.80;76.20;;;;;;5014995;28;20211;-71
2021/10/11 05:51:49;;;;;;;0.60;0.60;;;11.80;76.10;;;;;;5014875;28;20323;-71
2021/10/11 05:54:16;;;;;;;2.73;1.67;;;11.80;75.90;;;;;;5015045;28;20231;-71
2021/10/11 05:56:43;;;;;;;3.20;1.77;;;11.90;75.90;;;;;;5013856;28;20223;-71
2021/10/11 05:59:11;;;;;;;2.00;1.50;;;11.90;75.80;;;;;;5014632;28;20342;-71
2021/10/11 06:01:38;;;;;;;0.40;0.40;;;11.90;75.70;;;;;;5013849;28;20675;-71
2021/10/11 06:04:05;;;;;;;2.37;1.33;;;12.00;75.70;;;;;;5014598;28;20216;-71
2021/10/11 06:06:32;;;;;;;1.80;1.40;;;12.00;75.60;;;;;;5014214;28;20652;-71
2021/10/11 06:08:59;;;;;;;0.30;0.30;;;12.10;75.60;;;;;;5014746;28;20220;-71
2021/10/11 06:11:26;;;;;;;1.87;1.00;;;12.20;75.50;;;;;;5013933;28;20211;-71
2021/10/11 06:13:53;;;;;;;2.07;1.33;;;12.20;75.40;;;;;;5014124;28;20336;-71
2021/10/11 06:16:20;;;;;;;2.20;2.00;;;12.30;75.30;;;;;;5012908;28;20215;-71
2021/10/11 06:18:47;;;;;;;2.67;1.30;;;12.30;75.10;;;;;;5014130;28;20204;-70
2021/10/11 06:21:14;;;;;;;0.73;0.73;;;12.40;74.90;;;;;;5013994;28;20291;-70
2021/10/11 06:23:41;;;;;;;2.83;1.83;;;12.40;74.70;;;;;;5013037;28;20207;-70
2021/10/11 06:26:08;;;;;;;0.97;0.97;;;12.50;74.60;;;;;;5013550;28;20240;-70
2021/10/11 06:28:36;;;;;;;4.73;2.00;;;12.60;74.50;;;;;;5014138;28;20211;-71
2021/10/11 06:31:03;;;;;;;1.20;1.07;;;12.60;74.30;;;;;;5013703;28;20207;-71
2021/10/11 06:33:30;;;;;;;3.20;1.40;;;12.60;74.20;;;;;;5013941;28;20251;-71
2021/10/11 06:35:57;;;;;;;1.10;1.10;;;12.60;74.10;;;;;;5013368;28;20749;-71
2021/10/11 06:38:24;;;;;;;2.07;1.53;;;12.70;73.80;;;;;;5013312;28;20250;-71
2021/10/11 06:40:52;;;;;;;0.33;0.33;;;12.70;73.60;;;;;;5012543;28;20211;-71
2021/10/11 06:43:20;;;;;;;0.43;0.43;;;12.70;73.50;;;;;;5012906;28;20208;-71
2021/10/11 06:45:47;;;;;;;0.50;0.50;;;12.80;73.30;;;;;;5013694;28;20220;-71
2021/10/11 06:48:18;;;;;;;2.27;1.70;;;12.90;73.00;;;;;;5013525;28;20281;-71
2021/10/11 06:50:47;;;;;;;0.77;0.77;;;13.00;72.80;;;;;;5013505;28;20609;-71
2021/10/11 06:53:14;;;;;;;1.00;0.63;;;13.20;72.70;;;;;;5012991;28;20208;-71
2021/10/11 06:55:41;;;;;;;0.97;0.93;;;13.30;72.30;;;;;;5012367;28;20290;-71
2021/10/11 06:58:08;;;;;;;4.40;2.43;;;13.30;72.00;;;;;;5013447;28;20274;-71
2021/10/11 07:00:37;;;;;;;0.93;0.93;;;13.50;71.70;;;;;;5012087;28;20632;-71
2021/10/11 07:03:06;;;;;;;0.77;0.77;;;13.60;71.40;;;;;;5012449;28;20208;-71
2021/10/11 07:05:34;;;;;;;0.30;0.30;;;13.70;71.10;;;;;;5012819;28;20626;-71
2021/10/11 07:08:08;;;;;;;0.53;0.53;;;13.80;70.70;;;;;;5013393;28;20351;-71
2021/10/11 07:10:37;;;;;;;0.93;0.93;;;13.90;70.20;;;;;;5013072;28;20669;-71
2021/10/11 07:13:04;;;;;;;0.77;0.77;;;14.00;70.00;;;;;;5012321;28;20215;-71
2021/10/11 07:15:33;;;;;;;1.17;1.17;;;14.10;69.50;;;;;;5012972;28;20319;-70
2021/10/11 07:18:01;;;;;;;1.07;0.73;;;14.30;69.10;;;;;;5013297;28;20302;-70
2021/10/11 07:20:28;;;;;;;1.27;1.27;;;14.40;68.90;;;;;;5013071;28;20553;-70
2021/10/11 07:22:56;;;;;;;0.63;0.63;;;14.70;68.70;;;;;;5013502;28;20204;-70
2021/10/11 07:25:23;;;;;;;0.97;0.97;;;15.00;67.80;;;;;;5011644;28;20236;-70
2021/10/11 07:27:50;;;;;;;0.60;0.60;;;15.30;67.20;;;;;;5013004;28;20250;-70
2021/10/11 07:30:17;;;;;;;1.60;0.80;;;15.60;66.10;;;;;;5013043;28;20245;-70
2021/10/11 07:32:45;;;;;;;0.30;0.30;;;15.90;65.40;;;;;;5011984;28;20212;-69
2021/10/11 07:35:12;;;;;;;0.70;0.63;;;16.30;64.70;;;;;;5012725;28;20239;-70
2021/10/11 07:37:49;;;;;;;0.10;0.10;;;16.50;61.10;;;;;;5012921;28;20295;-70
2021/10/11 07:40:18;;;;;;;1.47;1.37;;;16.60;60.10;;;;;;5013017;28;20239;-70
2021/10/11 07:42:45;;;;;;;0.97;0.97;;;16.70;60.90;;;;;;5012258;28;20560;-70
2021/10/11 07:45:12;;;;;;;0.73;0.53;;;17.00;60.40;;;;;;5012832;28;20212;-70
2021/10/11 07:47:39;;;;;;;0.73;0.73;;;17.30;59.50;;;;;;5011747;28;20215;-70
2021/10/11 07:50:07;;;;;;;0.47;0.47;;;17.60;58.40;;;;;;5012888;28;20265;-70
2021/10/11 07:52:35;;;;;;;0.67;0.67;;;17.70;57.70;;;;;;5011803;28;20212;-70
2021/10/11 07:55:03;;;;;;;0.93;0.53;;;17.60;56.50;;;;;;5012950;28;20563;-70
2021/10/11 07:57:33;;;;;;;1.83;1.73;;;17.40;56.90;;;;;;5012156;28;20674;-70
2021/10/11 08:00:05;;;;;;;1.70;1.60;;;17.20;56.50;;;;;;5014404;28;20647;-70
2021/10/11 08:02:32;;;;;;;0.50;0.50;;;16.90;57.30;;;;;;5017580;28;20226;-70
2021/10/11 08:04:59;;;;;;;0.83;0.83;;;16.90;58.10;;;;;;5016661;28;20216;-71
2021/10/11 08:07:26;;;;;;;0.60;0.60;;;16.80;57.60;;;;;;5016648;28;20759;-70
2021/10/11 08:09:53;;;;;;;1.63;0.87;;;16.70;57.30;;;;;;5015910;28;20689;-71
2021/10/11 08:12:20;;;;;;;1.70;0.60;;;16.60;58.40;;;;;;5016098;28;20207;-70
2021/10/11 08:14:47;;;;;;;0.60;0.60;;;16.50;59.30;;;;;;5016549;28;20231;-70
2021/10/11 08:17:15;;;;;;;0.17;0.17;;;16.60;59.40;;;;;;5016192;28;20289;-70
2021/10/11 08:19:43;;;;;;;1.70;1.63;;;16.60;59.60;;;;;;5016603;28;20214;-70
2021/10/11 08:22:15;;;;;;;0.60;0.57;;;16.60;59.70;;;;;;5015911;28;20208;-70
2021/10/11 08:24:42;;;;;;;0.67;0.67;;;16.60;59.70;;;;;;5016390;28;20212;-70
2021/10/11 08:27:09;;;;;;;2.73;1.97;;;16.70;59.90;;;;;;5016261;28;20227;-70
2021/10/11 08:29:36;;;;;;;1.90;0.67;;;16.70;59.70;;;;;;5015648;28;20216;-70
2021/10/11 08:32:03;;;;;;;0.37;0.37;;;16.70;59.30;;;;;;5016443;28;20223;-70
2021/10/11 08:34:31;;;;;;;0.73;0.73;;;16.80;59.60;;;;;;5016622;28;20235;-70
2021/10/11 08:36:58;;;;;;;2.33;1.50;;;16.80;59.30;;;;;;5016144;28;20218;-70
2021/10/11 08:39:25;;;;;;;0.50;0.50;;;16.80;59.10;;;;;;4996883;28;20738;-70
2021/10/11 08:41:52;;;;;;;0.83;0.83;;;16.90;59.00;;;;;;4996896;28;20596;-70
2021/10/11 08:44:19;;;;;;;0.67;0.67;;;16.90;58.40;;;;;;5006898;28;20283;-70
2021/10/11 08:46:46;;;;;;;1.90;1.17;;;16.70;57.90;;;;;;5000816;28;20286;-70
2021/10/11 08:49:13;;;;;;;1.70;1.53;;;16.60;58.50;;;;;;5003479;28;20212;-70
2021/10/11 08:51:40;;;;;;;0.40;0.40;;;16.50;58.70;;;;;;4996156;28;20251;-69
2021/10/11 08:54:07;;;;;;;0.63;0.63;;;16.40;59.10;;;;;;4995411;28;20209;-69
2021/10/11 08:56:34;;;;;;;0.30;0.30;;;16.40;59.30;;;;;;5004585;28;20242;-69
2021/10/11 08:59:01;;;;;;;1.63;1.53;;;16.50;59.20;;;;;;5006865;28;20278;-69
2021/10/11 09:01:29;;;;;;;0.63;0.63;;;16.40;59.10;;;;;;5010956;28;20212;-70
2021/10/11 09:03:56;;;;;;;1.03;1.03;;;16.40;59.50;;;;;;5007615;28;20243;-69
2021/10/11 09:06:24;;;;;;;0.70;0.70;;;16.40;59.40;;;;;;5003106;28;20223;-70
2021/10/11 09:08:52;;;;;;;0.80;0.80;;;16.30;58.70;;;;;;5006797;28;20652;-69
2021/10/11 09:11:20;;;;;;;1.60;1.50;;;16.30;59.10;;;;;;5004704;28;20620;-71
2021/10/11 09:13:53;;;;;;;0.70;0.70;;;16.20;59.00;;;;;;5005524;28;20595;-70
2021/10/11 09:19:14;;;;;;;1.67;1.57;;;16.20;59.10;;;;;;5004319;28;20897;-70
2021/10/11 09:21:41;;;;;;;1.00;0.97;;;16.20;58.60;;;;;;5004629;28;20270;-70
2021/10/11 09:24:21;;;;;;;1.50;1.40;;;16.10;58.90;;;;;;5008501;28;20212;-70
2021/10/11 09:26:47;;;;;;;2.70;2.17;;;16.10;58.90;;;;;;5000290;28;20244;-69
2021/10/11 09:29:26;;;;;;;2.03;1.77;;;16.10;59.60;;;;;;5004186;28;20216;-70
2021/10/11 09:31:54;;;;;;;0.57;0.57;;;16.10;59.80;;;;;;5005024;28;20587;-70
2021/10/11 09:34:21;;;;;;;0.60;0.47;;;16.20;59.90;;;;;;5014405;28;20223;-69
2021/10/11 09:37:00;;;;;;;0.97;0.97;;;16.20;59.70;;;;;;5002972;28;20302;-69
2021/10/11 09:39:30;;;;;;;0.87;0.83;;;16.30;59.90;;;;;;5003232;28;20611;-69
2021/10/11 09:41:58;;;;;;;0.97;0.97;;;16.40;60.00;;;;;;5012580;28;20517;-69
2021/10/11 09:44:26;;;;;;;1.33;1.20;;;16.50;59.60;;;;;;5007372;28;20214;-69
2021/10/11 09:46:57;;;;;;;0.67;0.67;;;16.50;58.70;;;;;;5010356;28;20290;-70
2021/10/11 09:49:25;;;;;;;0.77;0.77;;;16.50;58.90;;;;;;5003757;28;20316;-70
2021/10/11 09:51:54;;;;;;;0.43;0.43;;;16.50;59.30;;;;;;5005557;28;20211;-70
2021/10/11 09:54:22;;;;;;;0.67;0.67;;;16.70;59.60;;;;;;5011991;28;20314;-70
2021/10/11 09:56:50;;;;;;;0.60;0.60;;;16.80;58.90;;;;;;5002853;28;20243;-70
2021/10/11 09:59:17;;;;;;;0.80;0.80;;;16.80;59.50;;;;;;5003482;28;20220;-70
2021/10/11 10:01:47;;;;;;;0.77;0.77;;;16.90;58.80;;;;;;5006518;28;20223;-70
2021/10/11 10:04:27;;;;;;;0.80;0.80;;;17.00;59.00;;;;;;5010771;28;20216;-70
2021/10/11 10:06:56;;;;;;;0.93;0.80;;;17.10;59.00;;;;;;5001529;28;20242;-70
2021/10/11 10:09:26;;;;;;;1.50;1.40;;;17.30;58.90;;;;;;5006711;28;20229;-70
2021/10/11 10:11:53;;;;;;;2.10;1.37;;;17.30;58.50;;;;;;5006274;28;20216;-70
2021/10/11 10:14:21;;;;;;;1.90;0.93;;;17.40;58.60;;;;;;5004027;28;20227;-70
2021/10/11 10:16:53;;;;;;;1.23;1.20;;;17.50;57.60;;;;;;5008020;28;20234;-70
2021/10/11 10:19:40;;;;;;;0.43;0.43;;;17.50;57.10;;;;;;5005884;28;20282;-70
2021/10/11 10:22:17;;;;;;;0.80;0.77;;;17.40;57.00;;;;;;5000819;28;20718;-70
2021/10/11 10:24:44;;;;;;;0.50;0.50;;;17.40;56.90;;;;;;5005474;28;20663;-70
2021/10/11 10:27:13;;;;;;;0.47;0.47;;;17.50;56.10;;;;;;4998521;28;20275;-70
2021/10/11 10:29:49;;;;;;;0.50;0.50;;;17.50;56.30;;;;;;5003883;28;20212;-69
2021/10/11 10:32:18;;;;;;;0.60;0.60;;;17.50;56.00;;;;;;5009479;28;20274;-69
2021/10/11 10:34:46;;;;;;;0.55;0.55;;;17.50;56.00;;;;;;5006180;28;20637;-70
2021/10/11 10:37:14;;;;;;;1.23;1.13;;;17.50;56.20;;;;;;5004688;28;20256;-70
2021/10/11 10:39:46;;;;;;;2.93;2.33;;;17.60;56.00;;;;;;5005812;28;20215;-70
2021/10/11 10:42:26;;;;;;;1.33;1.23;;;17.60;56.10;;;;;;5004200;28;20251;-70
2021/10/11 10:44:56;;;;;;;1.13;0.73;;;17.70;55.70;;;;;;5005963;28;20226;-70
2021/10/11 10:47:34;;;;;;;1.60;1.10;;;17.80;56.10;;;;;;5003360;28;20266;-69
2021/10/11 10:50:03;;;;;;;1.60;1.53;;;18.00;56.40;;;;;;5002399;28;20648;-70
2021/10/11 10:52:29;;;;;;;1.57;1.47;;;18.20;56.20;;;;;;5004549;28;20219;-70
2021/10/11 10:54:59;;;;;;;0.77;0.67;;;18.40;56.00;;;;;;5011065;28;20278;-70
2021/10/11 10:57:29;;;;;;;0.60;0.60;;;18.60;55.80;;;;;;5001621;28;20215;-70
2021/10/11 11:00:13;;;;;;;1.07;1.07;;;18.70;53.90;;;;;;5004882;28;20294;-70
2021/10/11 11:02:48;;;;;;;7.33;1.37;;;18.70;54.20;;;;;;5018845;28;20279;-70
2021/10/11 11:05:20;;;;;;;1.33;1.23;;;18.80;54.80;;;;;;4997880;28;20216;-70
2021/10/11 11:07:50;;;;;;;1.00;0.93;;;19.00;54.40;;;;;;5002736;28;20279;-70
2021/10/11 11:10:18;;;;;;;0.90;0.90;;;19.00;54.40;;;;;;5010743;28;20207;-70
2021/10/11 11:12:54;;;;;;;0.60;0.60;;;19.20;54.20;;;;;;5004236;28;20274;-70
2021/10/11 11:15:24;;;;;;;1.40;1.30;;;19.20;52.70;;;;;;5001418;28;20680;-70
2021/10/11 11:17:52;;;;;;;2.70;2.50;;;19.30;52.90;;;;;;5004036;28;20302;-70
2021/10/11 11:20:26;;;;;;;1.53;1.40;;;19.40;53.00;;;;;;5010481;28;20649;-70
2021/10/11 11:22:59;;;;;;;0.57;0.57;;;19.50;52.80;;;;;;5002786;28;20223;-70
2021/10/11 11:25:38;;;;;;;1.83;1.70;;;19.60;51.60;;;;;;5004669;28;20243;-71
2021/10/11 11:28:08;;;;;;;4.13;2.73;;;19.60;52.10;;;;;;5008501;28;20695;-71
2021/10/11 11:30:36;;;;;;;0.40;0.40;;;19.70;52.10;;;;;;5005246;28;20211;-69
2021/10/11 11:33:12;;;;;;;1.03;0.97;;;19.80;52.10;;;;;;4993855;28;20220;-70
2021/10/11 11:35:47;;;;;;;1.93;1.83;;;19.90;52.10;;;;;;4998365;28;20711;-71
2021/10/11 11:38:16;;;;;;;0.97;0.97;;;20.00;51.60;;;;;;5002782;28;20571;-70
2021/10/11 11:40:51;;;;;;;1.80;1.70;;;20.10;51.50;;;;;;5002113;28;20253;-69
2021/10/11 11:43:19;;;;;;;1.47;1.17;;;20.10;50.70;;;;;;5006570;28;20234;-69
2021/10/11 11:45:49;;;;;;;2.93;2.07;;;20.20;51.00;;;;;;5009205;28;20224;-69
2021/10/11 11:48:24;;;;;;;1.00;1.00;;;20.30;50.90;;;;;;5004837;28;20222;-69
2021/10/11 11:51:06;;;;;;;0.73;0.73;;;20.40;50.70;;;;;;5005737;28;20226;-69
2021/10/11 11:53:35;;;;;;;2.83;2.53;;;20.30;48.20;;;;;;5001170;28;20648;-69
2021/10/11 11:56:04;;;;;;;1.33;1.27;;;20.20;49.00;;;;;;5004859;28;20240;-69
2021/10/11 11:58:37;;;;;;;4.00;1.70;;;20.20;49.70;;;;;;5003408;28;20278;-69
2021/10/11 12:01:14;;;;;;;1.90;1.00;;;20.20;49.40;;;;;;5003007;28;20207;-69
2021/10/11 12:03:46;;;;;;;0.50;0.50;;;20.20;49.50;;;;;;5002019;28;20239;-69
2021/10/11 12:06:14;;;;;;;10.23;1.90;;;20.30;49.70;;;;;;5005513;28;20222;-69
2021/10/11 12:08:43;;;;;;;0.90;0.90;;;20.40;49.90;;;;;;5003480;28;20231;-69
2021/10/11 12:11:11;;;;;;;1.30;1.27;;;20.50;49.50;;;;;;5001388;28;20223;-69
2021/10/11 12:13:40;;;;;;;0.97;0.97;;;20.60;48.60;;;;;;5008280;28;20220;-69
2021/10/11 12:16:10;;;;;;;6.67;2.60;;;20.50;48.80;;;;;;5003707;28;20627;-69
2021/10/11 12:18:42;;;;;;;2.13;1.63;;;20.40;48.70;;;;;;5010281;28;20602;-69
2021/10/11 12:21:26;;;;;;;5.87;1.67;;;20.20;49.20;;;;;;5005171;28;20251;-69
2021/10/11 12:23:59;;;;;;;0.77;0.77;;;20.20;49.70;;;;;;5002571;28;20648;-69
2021/10/11 12:26:29;;;;;;;2.13;1.87;;;20.20;49.80;;;;;;4998195;28;20248;-69
2021/10/11 12:29:05;;;;;;;12.43;1.70;;;20.20;49.20;;;;;;4992894;28;20637;-69
2021/10/11 12:31:36;;;;;;;6.67;3.10;;;20.30;49.10;;;;;;4992592;28;20259;-69
2021/10/11 12:34:05;;;;;;;0.70;0.70;;;20.40;49.40;;;;;;4992791;28;20221;-69
2021/10/11 12:36:45;;;;;;;1.57;1.47;;;20.50;49.70;;;;;;4992260;28;20240;-69
2021/10/11 12:39:12;;;;;;;1.90;1.47;;;20.60;49.50;;;;;;4999595;28;20256;-69
2021/10/11 12:41:42;;;;;;;1.40;1.17;;;20.70;48.70;;;;;;4997857;28;20223;-69
2021/10/11 12:44:15;;;;;;;0.60;0.60;;;20.80;48.90;;;;;;5003015;28;20216;-69
2021/10/11 12:46:44;;;;;;;5.53;1.33;;;20.90;48.90;;;;;;5005624;28;20215;-69
2021/10/11 12:49:12;;;;;;;1.20;1.20;;;21.00;47.80;;;;;;5005768;28;20270;-69
2021/10/11 12:51:40;;;;;;;0.30;0.30;;;21.10;47.20;;;;;;5005428;28;20216;-69
2021/10/11 12:54:16;;;;;;;1.37;1.27;;;21.10;46.90;;;;;;5004132;28;20245;-69
2021/10/11 12:56:51;;;;;;;1.57;0.70;;;21.10;46.60;;;;;;5006072;28;20239;-69